createdAt,value
2022-11-08T00:00:07.186Z,14.90
2022-11-08T00:02:54.001Z,14.90
2022-11-08T00:05:58.194Z,14.80
2022-11-08T00:09:02.081Z,14.90
2022-11-08T00:12:05.983Z,14.80
2022-11-08T00:14:54.391Z,14.80
2022-11-08T00:17:40.935Z,14.80
2022-11-08T00:20:27.271Z,14.70
2022-11-08T00:23:13.723Z,14.70
2022-11-08T00:26:00.130Z,14.70
2022-11-08T00:28:46.585Z,14.70
2022-11-08T00:31:34.215Z,14.70
2022-11-08T00:34:21.090Z,14.60
2022-11-08T00:37:07.595Z,14.60
2022-11-08T00:39:53.992Z,14.60
2022-11-08T00:42:40.542Z,14.60
2022-11-08T00:45:26.880Z,14.60
2022-11-08T00:48:14.885Z,14.50
2022-11-08T00:51:03.367Z,14.50
2022-11-08T00:53:49.962Z,14.40
2022-11-08T00:56:36.393Z,14.40
2022-11-08T00:59:22.778Z,14.40
2022-11-08T01:02:09.337Z,14.40
2022-11-08T01:04:57.401Z,14.40
2022-11-08T01:07:44.117Z,14.30
2022-11-08T01:10:31.055Z,14.30
2022-11-08T01:13:19.141Z,14.20
2022-11-08T01:16:10.061Z,14.30
2022-11-08T01:18:58.201Z,14.20
2022-11-08T01:21:47.141Z,14.20
2022-11-08T01:24:33.955Z,14.20
2022-11-08T01:27:20.344Z,14.20
2022-11-08T01:30:08.057Z,14.20
2022-11-08T01:32:54.919Z,14.20
2022-11-08T01:35:42.111Z,14.20
2022-11-08T01:38:30.087Z,14.10
2022-11-08T01:41:18.778Z,14.10
2022-11-08T01:44:05.485Z,14.10
2022-11-08T01:46:51.878Z,14.10
2022-11-08T01:49:46.065Z,14.10
2022-11-08T01:52:36.427Z,14.10
2022-11-08T01:55:27.429Z,14.00
2022-11-08T01:58:17.944Z,14.00
2022-11-08T02:01:05.185Z,13.90
2022-11-08T02:03:52.476Z,13.90
2022-11-08T02:06:40.427Z,14.00
2022-11-08T02:09:27.609Z,13.90
2022-11-08T02:12:16.817Z,13.90
2022-11-08T02:15:03.449Z,13.90
2022-11-08T02:17:50.215Z,13.80
2022-11-08T02:20:37.148Z,13.80
2022-11-08T02:23:28.311Z,13.80
2022-11-08T02:26:17.289Z,13.80
2022-11-08T02:29:29.597Z,13.80
2022-11-08T02:32:16.065Z,13.70
2022-11-08T02:35:02.875Z,13.70
2022-11-08T02:37:49.727Z,13.70
2022-11-08T02:40:46.971Z,13.60
2022-11-08T02:43:35.107Z,13.60
2022-11-08T02:46:21.895Z,13.50
2022-11-08T02:49:08.318Z,13.50
2022-11-08T02:51:55.343Z,13.50
2022-11-08T02:54:42.191Z,13.40
2022-11-08T02:57:28.609Z,13.40
2022-11-08T03:00:17.424Z,13.40
2022-11-08T03:03:04.722Z,13.30
2022-11-08T03:05:51.216Z,13.30
2022-11-08T03:08:37.629Z,13.20
2022-11-08T03:11:24.196Z,13.20
2022-11-08T03:14:10.723Z,13.20
2022-11-08T03:16:58.743Z,13.10
2022-11-08T03:19:45.503Z,13.10
2022-11-08T03:22:32.033Z,13.00
2022-11-08T03:25:18.618Z,12.90
2022-11-08T03:28:07.417Z,12.80
2022-11-08T03:30:54.219Z,12.80
2022-11-08T03:33:42.098Z,12.70
2022-11-08T03:36:28.788Z,12.70
2022-11-08T03:39:15.306Z,12.70
2022-11-08T03:42:03.237Z,12.70
2022-11-08T03:44:49.726Z,12.70
2022-11-08T03:47:38.883Z,12.70
2022-11-08T03:50:27.003Z,12.70
2022-11-08T03:53:13.840Z,12.70
2022-11-08T03:56:00.953Z,12.70
2022-11-08T03:58:47.940Z,12.70
2022-11-08T04:01:34.727Z,12.70
2022-11-08T04:04:21.595Z,12.70
2022-11-08T04:07:09.668Z,12.70
2022-11-08T04:09:56.362Z,12.70
2022-11-08T04:13:01.700Z,12.80
2022-11-08T04:15:48.987Z,12.70
2022-11-08T04:18:53.145Z,12.70
2022-11-08T04:21:39.884Z,12.70
2022-11-08T04:24:27.704Z,12.60
2022-11-08T04:27:14.251Z,12.60
2022-11-08T04:30:00.775Z,12.60
2022-11-08T04:32:47.102Z,12.60
2022-11-08T04:35:33.535Z,12.60
2022-11-08T04:38:21.419Z,12.60
2022-11-08T04:41:11.753Z,12.60
2022-11-08T04:43:58.921Z,12.60
2022-11-08T04:46:45.845Z,12.60
2022-11-08T04:49:32.776Z,12.60
2022-11-08T04:52:19.143Z,12.60
2022-11-08T04:55:06.292Z,12.60
2022-11-08T04:57:59.533Z,12.60
2022-11-08T05:00:46.158Z,12.60
2022-11-08T05:03:33.032Z,12.60
2022-11-08T05:06:21.590Z,12.60
2022-11-08T05:09:08.553Z,12.70
2022-11-08T05:11:55.417Z,12.60
2022-11-08T05:14:43.298Z,12.60
2022-11-08T05:17:30.034Z,12.70
2022-11-08T05:20:34.201Z,12.60
2022-11-08T05:23:26.542Z,12.60
2022-11-08T05:26:14.592Z,12.60
2022-11-08T05:29:01.026Z,12.60
2022-11-08T05:31:48.998Z,12.60
2022-11-08T05:34:35.892Z,12.50
2022-11-08T05:37:22.705Z,12.50
2022-11-08T05:40:11.227Z,12.50
2022-11-08T05:42:57.819Z,12.50
2022-11-08T05:45:46.032Z,12.50
2022-11-08T05:48:34.155Z,12.50
2022-11-08T05:51:21.307Z,12.50
2022-11-08T05:54:08.250Z,12.50
2022-11-08T05:56:55.459Z,12.50
2022-11-08T05:59:42.002Z,12.50
2022-11-08T06:02:29.946Z,12.50
2022-11-08T06:05:18.267Z,12.50
2022-11-08T06:08:04.714Z,12.50
2022-11-08T06:10:51.250Z,12.50
2022-11-08T06:13:38.049Z,12.50
2022-11-08T06:16:25.633Z,12.50
2022-11-08T06:19:12.670Z,12.50
2022-11-08T06:22:00.546Z,12.50
2022-11-08T06:24:47.248Z,12.40
2022-11-08T06:27:33.623Z,12.40
2022-11-08T06:30:20.239Z,12.40
2022-11-08T06:33:06.993Z,12.30
2022-11-08T06:35:54.313Z,12.30
2022-11-08T06:38:42.536Z,12.40
2022-11-08T06:41:30.447Z,12.30
2022-11-08T06:44:16.851Z,12.30
2022-11-08T06:47:03.228Z,12.30
2022-11-08T06:49:49.738Z,12.30
2022-11-08T06:52:36.151Z,12.30
2022-11-08T06:55:24.015Z,12.30
2022-11-08T06:58:11.972Z,12.20
2022-11-08T07:00:59.052Z,12.20
2022-11-08T07:03:45.410Z,12.20
2022-11-08T07:06:32.345Z,12.20
2022-11-08T07:09:19.063Z,12.30
2022-11-08T07:12:07.430Z,12.20
2022-11-08T07:14:54.170Z,12.20
2022-11-08T07:17:40.608Z,12.20
2022-11-08T07:20:27.083Z,12.20
2022-11-08T07:23:14.050Z,12.20
2022-11-08T07:26:04.499Z,12.20
2022-11-08T07:28:55.308Z,12.20
2022-11-08T07:31:43.175Z,12.30
2022-11-08T07:34:31.550Z,12.30
2022-11-08T07:37:18.531Z,12.30
2022-11-08T07:40:06.195Z,12.30
2022-11-08T07:46:00.772Z,12.40
2022-11-08T07:48:48.760Z,12.50
2022-11-08T07:51:35.565Z,12.60
2022-11-08T07:54:22.122Z,12.60
2022-11-08T07:57:08.555Z,12.70
2022-11-08T07:59:54.958Z,12.70
2022-11-08T08:02:41.680Z,12.80
2022-11-08T08:05:30.865Z,12.80
2022-11-08T08:08:17.523Z,12.90
2022-11-08T08:11:05.165Z,13.00
2022-11-08T08:13:51.897Z,13.10
2022-11-08T08:16:38.262Z,13.10
2022-11-08T08:19:24.727Z,13.20
2022-11-08T08:22:12.415Z,13.20
2022-11-08T08:25:02.893Z,13.30
2022-11-08T08:27:50.794Z,13.40
2022-11-08T08:30:38.180Z,13.40
2022-11-08T08:33:29.079Z,13.40
2022-11-08T08:36:16.536Z,13.50
2022-11-08T08:39:04.534Z,13.60
2022-11-08T08:41:50.959Z,13.60
2022-11-08T08:44:37.535Z,13.60
2022-11-08T08:47:24.120Z,13.70
2022-11-08T08:50:11.074Z,13.80
2022-11-08T08:53:00.114Z,13.80
2022-11-08T08:55:52.361Z,13.80
2022-11-08T08:58:38.837Z,13.90
2022-11-08T09:01:41.507Z,14.00
2022-11-08T09:04:28.352Z,14.10
2022-11-08T09:07:14.692Z,14.20
2022-11-08T09:10:01.530Z,14.30
2022-11-08T09:12:50.093Z,14.30
2022-11-08T09:15:37.011Z,14.30
2022-11-08T09:18:24.300Z,14.40
2022-11-08T09:21:11.018Z,14.40
2022-11-08T09:23:57.607Z,14.50
2022-11-08T09:26:43.924Z,14.60
2022-11-08T09:29:32.172Z,14.70
2022-11-08T09:32:24.793Z,14.70
2022-11-08T09:35:20.363Z,14.70
2022-11-08T09:38:07.431Z,14.80
2022-11-08T09:41:04.706Z,14.80
2022-11-08T09:44:04.385Z,14.90
2022-11-08T09:46:54.475Z,15.10
2022-11-08T09:49:45.854Z,15.20
2022-11-08T09:52:34.850Z,15.30
2022-11-08T09:55:28.642Z,15.30
2022-11-08T09:58:25.125Z,15.50
2022-11-08T10:01:13.541Z,15.60
2022-11-08T10:04:04.164Z,15.70
2022-11-08T10:07:08.418Z,15.80
2022-11-08T10:10:14.665Z,15.80
2022-11-08T10:13:09.263Z,15.80
2022-11-08T10:16:02.425Z,15.70
2022-11-08T10:19:00.651Z,15.60
2022-11-08T10:21:59.278Z,15.60
2022-11-08T10:24:55.345Z,15.60
2022-11-08T10:27:44.140Z,15.60
2022-11-08T10:30:34.622Z,15.70
2022-11-08T10:33:26.028Z,15.70
2022-11-08T10:36:18.010Z,15.70
2022-11-08T10:39:14.390Z,15.70
2022-11-08T10:42:07.107Z,15.80
2022-11-08T10:44:53.853Z,15.90
2022-11-08T10:47:41.959Z,15.90
2022-11-08T10:50:41.476Z,15.90
2022-11-08T10:53:31.597Z,16.00
2022-11-08T10:56:20.695Z,16.00
2022-11-08T10:59:32.316Z,16.00
2022-11-08T11:02:25.846Z,16.10
2022-11-08T11:05:27.455Z,16.20
2022-11-08T11:08:19.088Z,16.30
2022-11-08T11:11:25.954Z,16.30
2022-11-08T11:14:19.427Z,16.30
2022-11-08T11:17:17.565Z,16.30
2022-11-08T11:20:04.657Z,16.30
2022-11-08T11:22:52.213Z,16.30
2022-11-08T11:25:50.600Z,16.30
2022-11-08T11:28:38.446Z,16.40
2022-11-08T11:31:25.264Z,16.40
2022-11-08T11:34:51.494Z,16.40
2022-11-08T11:37:43.932Z,16.30
2022-11-08T11:40:36.118Z,16.30
2022-11-08T11:43:28.474Z,16.30
2022-11-08T11:46:22.483Z,16.30
2022-11-08T11:49:17.495Z,16.30
2022-11-08T11:52:03.939Z,16.30
2022-11-08T11:54:51.315Z,16.20
2022-11-08T11:57:45.934Z,16.20
2022-11-08T12:00:36.550Z,16.20
2022-11-08T12:03:47.967Z,16.20
2022-11-08T12:06:43.957Z,16.30
2022-11-08T12:09:46.615Z,16.30
2022-11-08T12:12:45.907Z,16.40
2022-11-08T12:15:41.565Z,16.40
2022-11-08T12:18:57.996Z,16.50
2022-11-08T12:21:56.138Z,16.50
2022-11-08T12:24:51.121Z,16.60
2022-11-08T12:27:45.629Z,16.60
2022-11-08T12:30:44.149Z,16.60
2022-11-08T12:33:39.455Z,16.50
2022-11-08T12:36:36.538Z,16.50
2022-11-08T12:39:32.449Z,16.50
2022-11-08T12:42:42.012Z,16.50
2022-11-08T12:45:47.275Z,16.50
2022-11-08T12:49:09.913Z,16.50
2022-11-08T12:52:19.307Z,16.50
2022-11-08T12:55:12.602Z,16.50
2022-11-08T12:58:00.831Z,16.60
2022-11-08T13:00:52.447Z,16.60
2022-11-08T13:04:15.659Z,16.60
2022-11-08T13:07:07.669Z,16.70
2022-11-08T13:10:01.862Z,16.70
2022-11-08T13:13:03.434Z,16.70
2022-11-08T13:16:14.534Z,16.80
2022-11-08T13:19:04.477Z,16.80
2022-11-08T13:21:51.809Z,16.80
2022-11-08T13:24:45.636Z,16.90
2022-11-08T13:27:35.634Z,16.90
2022-11-08T13:30:43.799Z,16.90
2022-11-08T13:33:34.156Z,16.90
2022-11-08T13:36:32.816Z,16.80
2022-11-08T13:39:36.154Z,16.80
2022-11-08T13:42:47.718Z,16.70
2022-11-08T13:45:36.652Z,16.60
2022-11-08T13:48:42.568Z,16.60
2022-11-08T13:51:30.578Z,16.60
2022-11-08T13:54:49.866Z,16.50
2022-11-08T13:57:56.662Z,16.50
2022-11-08T14:00:47.607Z,16.50
2022-11-08T14:03:56.578Z,16.50
2022-11-08T14:06:52.102Z,16.40
2022-11-08T14:09:47.873Z,16.40
2022-11-08T14:12:40.731Z,16.40
2022-11-08T14:15:31.755Z,16.40
2022-11-08T14:18:25.931Z,16.40
2022-11-08T14:21:17.762Z,16.40
2022-11-08T14:24:05.097Z,16.30
2022-11-08T14:26:52.419Z,16.30
2022-11-08T14:29:38.970Z,16.30
2022-11-08T14:32:25.442Z,16.30
2022-11-08T14:35:15.838Z,16.30
2022-11-08T14:38:02.302Z,16.30
2022-11-08T14:40:50.670Z,16.30
2022-11-08T14:43:44.014Z,16.30
2022-11-08T14:46:34.221Z,16.30
2022-11-08T14:49:23.287Z,16.20
2022-11-08T14:52:17.298Z,16.20
2022-11-08T14:55:07.196Z,16.20
2022-11-08T14:57:53.635Z,16.20
2022-11-08T15:00:43.966Z,16.20
2022-11-08T15:03:33.454Z,16.10
2022-11-08T15:06:20.143Z,16.10
2022-11-08T15:09:09.314Z,16.10
2022-11-08T15:11:57.839Z,16.00
2022-11-08T15:14:49.812Z,16.00
2022-11-08T15:17:39.068Z,16.00
2022-11-08T15:20:25.699Z,16.00
2022-11-08T15:23:26.986Z,16.00
2022-11-08T15:26:23.846Z,16.00
2022-11-08T15:29:19.707Z,16.00
2022-11-08T15:32:16.484Z,16.00
2022-11-08T15:35:03.498Z,16.00
2022-11-08T15:37:51.874Z,16.00
2022-11-08T15:40:39.766Z,16.00
2022-11-08T15:43:40.030Z,15.90
2022-11-08T15:46:35.408Z,14.80
2022-11-08T15:49:24.572Z,15.90
2022-11-08T15:52:11.859Z,15.90
2022-11-08T15:54:58.973Z,15.80
2022-11-08T15:57:49.312Z,15.80
2022-11-08T16:00:41.244Z,15.80
2022-11-08T16:03:28.575Z,15.80
2022-11-08T16:06:16.467Z,15.80
2022-11-08T16:09:07.082Z,15.70
2022-11-08T16:11:54.231Z,15.70
2022-11-08T16:14:42.793Z,15.60
2022-11-08T16:17:30.770Z,15.70
2022-11-08T16:20:27.412Z,15.60
2022-11-08T16:23:14.970Z,15.60
2022-11-08T16:26:03.251Z,15.60
2022-11-08T16:28:49.992Z,15.60
2022-11-08T16:31:36.523Z,15.50
2022-11-08T16:34:24.490Z,15.50
2022-11-08T16:37:13.397Z,15.50
2022-11-08T16:40:01.547Z,15.50
2022-11-08T16:42:50.022Z,15.50
2022-11-08T16:46:03.191Z,15.40
2022-11-08T16:48:47.830Z,15.40
2022-11-08T16:51:36.449Z,15.40
2022-11-08T16:54:28.321Z,15.40
2022-11-08T16:57:33.788Z,15.30
2022-11-08T17:00:21.991Z,15.30
2022-11-08T17:03:08.971Z,15.30
2022-11-08T17:05:56.187Z,15.30
2022-11-08T17:08:44.195Z,15.30
2022-11-08T17:11:30.947Z,15.20
2022-11-08T17:14:17.386Z,15.20
2022-11-08T17:17:03.874Z,15.20
2022-11-08T17:19:50.343Z,15.20
2022-11-08T17:22:37.015Z,15.10
2022-11-08T17:25:25.909Z,15.10
2022-11-08T17:28:12.846Z,15.10
2022-11-08T17:31:12.602Z,15.10
2022-11-08T17:33:59.179Z,15.10
2022-11-08T17:36:46.230Z,15.10
2022-11-08T17:39:33.079Z,15.00
2022-11-08T17:42:21.292Z,15.00
2022-11-08T17:45:09.743Z,15.00
2022-11-08T17:47:56.414Z,15.10
2022-11-08T17:50:47.577Z,15.00
2022-11-08T17:53:35.043Z,15.00
2022-11-08T17:56:21.848Z,15.00
2022-11-08T17:59:09.773Z,15.00
2022-11-08T18:01:56.740Z,15.00
2022-11-08T18:04:43.499Z,15.00
2022-11-08T18:07:29.963Z,15.00
2022-11-08T18:10:16.975Z,15.00
2022-11-08T18:13:03.331Z,15.00
2022-11-08T18:15:52.387Z,15.00
2022-11-08T18:18:39.305Z,15.00
2022-11-08T18:21:26.491Z,15.00
2022-11-08T18:24:13.700Z,15.00
2022-11-08T18:27:00.569Z,15.00
2022-11-08T18:29:47.439Z,15.10
2022-11-08T18:32:35.338Z,15.10
2022-11-08T18:35:21.902Z,15.10
2022-11-08T18:38:08.441Z,15.10
2022-11-08T18:40:54.874Z,15.10
2022-11-08T18:43:41.631Z,15.10
2022-11-08T18:46:32.746Z,15.10
2022-11-08T18:49:20.587Z,15.10
2022-11-08T18:52:07.430Z,15.10
2022-11-08T18:54:53.927Z,15.20
2022-11-08T18:57:40.637Z,15.20
2022-11-08T19:00:27.352Z,15.20
2022-11-08T19:03:13.870Z,15.20
2022-11-08T19:06:01.756Z,15.20
2022-11-08T19:08:48.570Z,15.30
2022-11-08T19:11:34.963Z,15.30
2022-11-08T19:14:21.427Z,15.30
2022-11-08T19:17:07.947Z,15.40
2022-11-08T19:19:54.671Z,15.40
2022-11-08T19:22:42.539Z,15.50
2022-11-08T19:25:29.399Z,15.60
2022-11-08T19:28:15.775Z,15.60
2022-11-08T19:31:02.887Z,15.70
2022-11-08T19:33:51.750Z,15.70
2022-11-08T19:36:43.298Z,15.70
2022-11-08T19:39:31.377Z,15.70
2022-11-08T19:42:18.033Z,15.70
2022-11-08T19:45:05.463Z,15.70
2022-11-08T19:47:53.165Z,15.70
2022-11-08T19:50:43.739Z,15.80
2022-11-08T19:53:30.377Z,15.80
2022-11-08T19:56:26.171Z,15.80
2022-11-08T19:59:24.893Z,15.80
2022-11-08T20:02:11.434Z,15.90
2022-11-08T20:04:58.274Z,15.90
2022-11-08T20:07:45.744Z,15.90
2022-11-08T20:10:32.885Z,15.90
2022-11-08T20:13:20.950Z,15.90
2022-11-08T20:16:12.475Z,15.90
2022-11-08T20:19:03.383Z,15.90
2022-11-08T20:21:50.227Z,16.00
2022-11-08T20:24:37.264Z,16.00
2022-11-08T20:27:23.943Z,16.00
2022-11-08T20:30:13.231Z,16.10
2022-11-08T20:32:59.978Z,16.10
2022-11-08T20:35:46.952Z,16.00
2022-11-08T20:38:33.863Z,16.10
2022-11-08T20:41:20.435Z,16.10
2022-11-08T20:44:07.413Z,16.10
2022-11-08T20:46:55.499Z,16.10
2022-11-08T20:49:42.374Z,16.20
2022-11-08T20:52:28.923Z,16.10
2022-11-08T20:55:15.376Z,16.10
2022-11-08T20:58:02.163Z,16.10
2022-11-08T21:01:04.383Z,16.20
2022-11-08T21:03:52.739Z,16.20
2022-11-08T21:06:40.289Z,16.20
2022-11-08T21:09:37.394Z,16.10
2022-11-08T21:12:29.109Z,16.20
2022-11-08T21:15:16.207Z,16.10
2022-11-08T21:18:02.849Z,16.10
2022-11-08T21:20:52.233Z,16.10
2022-11-08T21:23:40.484Z,16.10
2022-11-08T21:26:27.207Z,16.10
2022-11-08T21:29:13.643Z,16.10
2022-11-08T21:32:00.163Z,16.00
2022-11-08T21:34:47.217Z,16.00
2022-11-08T21:37:35.203Z,16.00
2022-11-08T21:40:21.994Z,16.00
2022-11-08T21:43:08.445Z,16.00
2022-11-08T21:45:54.874Z,16.00
2022-11-08T21:48:41.352Z,16.00
2022-11-08T21:51:29.324Z,16.00
2022-11-08T21:54:17.240Z,16.00
2022-11-08T21:57:03.771Z,16.00
2022-11-08T21:59:50.203Z,15.90
2022-11-08T22:02:36.902Z,15.90
2022-11-08T22:05:23.746Z,15.90
2022-11-08T22:08:10.279Z,15.90
2022-11-08T22:10:58.181Z,15.90
2022-11-08T22:13:45.017Z,15.80
2022-11-08T22:16:31.506Z,15.80
2022-11-08T22:19:17.781Z,15.80
2022-11-08T22:22:05.284Z,15.80
2022-11-08T22:24:51.641Z,15.80
2022-11-08T22:27:39.379Z,15.70
2022-11-08T22:30:26.216Z,15.70
2022-11-08T22:33:12.610Z,15.70
2022-11-08T22:35:58.963Z,15.60
2022-11-08T22:38:45.523Z,15.60
2022-11-08T22:41:32.242Z,15.60
2022-11-08T22:44:20.415Z,15.60
2022-11-08T22:47:06.935Z,15.60
2022-11-08T22:49:53.482Z,15.60
2022-11-08T22:52:39.922Z,15.60
2022-11-08T22:55:26.663Z,15.60
2022-11-08T22:58:13.420Z,15.50
2022-11-08T23:01:01.150Z,15.50
2022-11-08T23:03:49.313Z,15.40
2022-11-08T23:06:35.710Z,15.50
2022-11-08T23:09:22.501Z,15.50
2022-11-08T23:12:28.010Z,15.40
2022-11-08T23:15:31.883Z,15.40
2022-11-08T23:18:20.534Z,15.40
2022-11-08T23:21:24.783Z,15.40
2022-11-08T23:24:23.185Z,15.30
2022-11-08T23:27:28.299Z,15.40
2022-11-08T23:30:35.085Z,15.40
2022-11-08T23:33:23.207Z,15.40
2022-11-08T23:36:12.319Z,15.40
2022-11-08T23:38:59.793Z,15.50
2022-11-08T23:42:03.726Z,15.40
2022-11-08T23:44:50.491Z,15.40
2022-11-08T23:47:36.826Z,15.40
2022-11-08T23:50:24.508Z,15.50
2022-11-08T23:53:11.356Z,15.50
2022-11-08T23:55:58.027Z,15.50
2022-11-08T23:58:44.613Z,15.50
